createdAt,value
2022-10-02T00:00:11.478Z,16.09
2022-10-02T00:02:45.172Z,16.10
2022-10-02T00:05:23.576Z,16.13
2022-10-02T00:07:57.962Z,16.13
2022-10-02T00:10:50.395Z,16.10
2022-10-02T00:13:45.281Z,16.16
2022-10-02T00:16:41.171Z,16.14
2022-10-02T00:19:11.424Z,16.08
2022-10-02T00:22:27.458Z,16.18
2022-10-02T00:25:20.963Z,16.25
2022-10-02T00:28:05.496Z,16.32
2022-10-02T00:30:43.943Z,16.30
2022-10-02T00:33:55.754Z,16.43
2022-10-02T00:36:52.027Z,16.52
2022-10-02T00:39:42.993Z,16.50
2022-10-02T00:42:15.926Z,16.59
2022-10-02T00:44:42.757Z,16.59
2022-10-02T00:47:17.815Z,16.55
2022-10-02T00:50:18.663Z,16.50
2022-10-02T00:53:11.563Z,16.50
2022-10-02T00:55:50.191Z,16.58
2022-10-02T00:58:22.664Z,16.58
2022-10-02T01:01:00.267Z,16.58
2022-10-02T01:03:32.746Z,16.58
2022-10-02T01:05:59.704Z,16.57
2022-10-02T01:08:26.564Z,16.60
2022-10-02T01:10:53.964Z,16.60
2022-10-02T01:13:20.985Z,16.63
2022-10-02T01:15:53.083Z,16.64
2022-10-02T01:18:20.043Z,16.62
2022-10-02T01:20:58.673Z,16.67
2022-10-02T01:23:30.436Z,16.58
2022-10-02T01:25:59.054Z,16.65
2022-10-02T01:28:39.405Z,16.50
2022-10-02T01:31:10.427Z,16.62
2022-10-02T01:33:41.809Z,16.64
2022-10-02T01:36:11.655Z,16.63
2022-10-02T01:38:40.805Z,16.63
2022-10-02T01:41:11.240Z,16.59
2022-10-02T01:43:52.894Z,16.51
2022-10-02T01:46:52.284Z,16.39
2022-10-02T01:49:46.246Z,16.39
2022-10-02T01:53:01.267Z,16.29
2022-10-02T01:55:36.524Z,16.33
2022-10-02T01:58:03.437Z,16.38
2022-10-02T02:00:44.912Z,16.38
2022-10-02T02:03:30.234Z,16.37
2022-10-02T02:06:08.452Z,16.39
2022-10-02T02:08:58.514Z,16.40
2022-10-02T02:11:29.463Z,16.39
2022-10-02T02:14:17.664Z,16.37
2022-10-02T02:17:02.837Z,16.32
2022-10-02T02:19:48.781Z,16.27
2022-10-02T02:22:24.645Z,16.29
2022-10-02T02:25:03.772Z,16.21
2022-10-02T02:27:36.238Z,16.23
2022-10-02T02:30:07.942Z,16.19
2022-10-02T02:32:39.162Z,16.04
2022-10-02T02:35:10.485Z,16.08
2022-10-02T02:37:40.661Z,16.05
2022-10-02T02:40:13.432Z,15.97
2022-10-02T02:42:51.532Z,15.99
2022-10-02T02:45:30.093Z,16.00
2022-10-02T02:48:06.423Z,16.01
2022-10-02T02:50:47.444Z,16.07
2022-10-02T02:53:24.272Z,16.04
2022-10-02T02:55:53.891Z,16.10
2022-10-02T02:58:42.353Z,16.14
2022-10-02T03:01:09.536Z,16.09
2022-10-02T03:03:36.581Z,16.19
2022-10-02T03:06:15.693Z,16.16
2022-10-02T03:08:43.765Z,16.21
2022-10-02T03:11:26.072Z,16.22
2022-10-02T03:13:55.883Z,16.24
2022-10-02T03:16:56.622Z,16.29
2022-10-02T03:19:35.610Z,16.28
2022-10-02T03:22:37.152Z,16.25
2022-10-02T03:25:10.974Z,16.29
2022-10-02T03:27:44.531Z,16.27
2022-10-02T03:30:16.162Z,16.26
2022-10-02T03:32:48.130Z,16.26
2022-10-02T03:35:15.602Z,16.34
2022-10-02T03:37:49.122Z,16.32
2022-10-02T03:40:16.499Z,16.35
2022-10-02T03:42:43.645Z,16.23
2022-10-02T03:45:16.510Z,16.28
2022-10-02T03:47:50.076Z,16.25
2022-10-02T03:50:17.213Z,16.29
2022-10-02T03:52:45.227Z,16.27
2022-10-02T03:55:33.411Z,16.31
2022-10-02T03:58:10.076Z,16.33
2022-10-02T04:00:41.690Z,16.33
2022-10-02T04:03:18.086Z,16.23
2022-10-02T04:06:01.031Z,16.27
2022-10-02T04:08:39.682Z,16.31
2022-10-02T04:11:11.802Z,16.34
2022-10-02T04:13:40.832Z,16.31
2022-10-02T04:16:19.084Z,16.35
2022-10-02T04:18:55.461Z,16.32
2022-10-02T04:21:35.055Z,16.37
2022-10-02T04:24:23.832Z,16.38
2022-10-02T04:26:59.629Z,16.36
2022-10-02T04:29:32.672Z,16.36
2022-10-02T04:32:30.310Z,16.32
2022-10-02T04:34:57.252Z,16.32
2022-10-02T04:37:29.960Z,16.34
2022-10-02T04:40:35.834Z,16.28
2022-10-02T04:43:08.275Z,16.21
2022-10-02T04:45:49.065Z,16.23
2022-10-02T04:48:56.350Z,16.23
2022-10-02T04:51:41.462Z,16.27
2022-10-02T04:54:36.186Z,16.15
2022-10-02T04:57:26.232Z,16.29
2022-10-02T05:00:01.867Z,16.27
2022-10-02T05:02:53.461Z,16.25
2022-10-02T05:05:37.396Z,16.26
2022-10-02T05:08:28.771Z,16.31
2022-10-02T05:11:40.484Z,16.20
2022-10-02T05:14:28.077Z,16.72
2022-10-02T05:17:22.137Z,17.80
2022-10-02T05:20:06.894Z,18.27
2022-10-02T05:23:11.693Z,18.70
2022-10-02T05:25:57.114Z,19.23
2022-10-02T05:28:46.334Z,19.90
2022-10-02T05:31:23.322Z,20.53
2022-10-02T05:33:57.395Z,21.37
2022-10-02T05:36:33.626Z,21.54
2022-10-02T05:39:15.834Z,21.19
2022-10-02T05:41:45.511Z,20.83
2022-10-02T05:44:15.192Z,20.51
2022-10-02T05:47:07.668Z,20.08
2022-10-02T05:50:14.296Z,19.63
2022-10-02T05:53:04.793Z,19.76
2022-10-02T05:55:47.722Z,19.57
2022-10-02T05:58:40.185Z,19.22
2022-10-02T06:01:26.007Z,19.09
2022-10-02T06:04:18.265Z,20.28
2022-10-02T06:06:55.495Z,20.98
2022-10-02T06:09:31.503Z,22.31
2022-10-02T06:12:06.667Z,23.70
2022-10-02T06:14:46.134Z,24.33
2022-10-02T06:17:29.815Z,24.01
2022-10-02T06:20:03.267Z,24.86
2022-10-02T06:22:40.294Z,25.16
2022-10-02T06:25:30.150Z,25.72
2022-10-02T06:28:09.791Z,26.30
2022-10-02T06:30:42.058Z,26.37
2022-10-02T06:33:14.892Z,25.82
2022-10-02T06:36:18.051Z,26.75
2022-10-02T06:39:22.101Z,27.47
2022-10-02T06:42:22.236Z,27.35
2022-10-02T06:45:10.997Z,27.56
2022-10-02T06:47:57.654Z,28.00
2022-10-02T06:51:09.076Z,27.37
2022-10-02T06:54:26.323Z,27.69
2022-10-02T06:57:25.252Z,27.88
2022-10-02T07:00:18.367Z,26.74
2022-10-02T07:03:09.354Z,27.66
2022-10-02T07:06:08.278Z,27.81
2022-10-02T07:09:21.684Z,28.21
2022-10-02T07:11:51.175Z,28.49
2022-10-02T07:14:30.491Z,27.54
2022-10-02T07:17:22.088Z,26.02
2022-10-02T07:20:07.635Z,25.37
2022-10-02T07:22:50.746Z,24.31
2022-10-02T07:25:54.479Z,23.91
2022-10-02T07:28:39.698Z,23.12
2022-10-02T07:31:44.002Z,23.16
2022-10-02T07:34:30.923Z,23.34
2022-10-02T07:37:29.634Z,23.89
2022-10-02T07:40:23.384Z,24.45
2022-10-02T07:42:56.273Z,24.49
2022-10-02T07:45:44.769Z,24.18
2022-10-02T07:48:33.103Z,23.89
2022-10-02T07:51:28.504Z,23.89
2022-10-02T07:54:08.953Z,23.96
2022-10-02T07:56:37.574Z,24.69
2022-10-02T07:59:11.393Z,25.07
2022-10-02T08:01:43.510Z,25.15
2022-10-02T08:04:16.582Z,25.58
2022-10-02T08:06:45.198Z,25.96
2022-10-02T08:09:23.649Z,25.85
2022-10-02T08:11:59.904Z,26.26
2022-10-02T08:14:39.149Z,26.03
2022-10-02T08:17:58.701Z,25.86
2022-10-02T08:20:36.651Z,26.09
2022-10-02T08:23:21.000Z,26.02
2022-10-02T08:26:34.495Z,26.74
2022-10-02T08:29:08.381Z,26.64
2022-10-02T08:31:35.276Z,27.08
2022-10-02T08:34:14.181Z,27.27
2022-10-02T08:36:47.282Z,27.25
2022-10-02T08:39:34.641Z,27.49
2022-10-02T08:42:29.531Z,27.63
2022-10-02T08:45:02.474Z,26.90
2022-10-02T08:48:09.892Z,26.87
2022-10-02T08:50:43.152Z,26.60
2022-10-02T08:53:22.243Z,25.94
2022-10-02T08:56:20.328Z,25.34
2022-10-02T08:59:11.621Z,24.82
2022-10-02T09:02:03.812Z,24.16
2022-10-02T09:04:58.744Z,24.59
2022-10-02T09:07:39.581Z,25.04
2022-10-02T09:10:49.669Z,25.27
2022-10-02T09:13:54.415Z,25.21
2022-10-02T09:16:40.509Z,26.38
2022-10-02T09:19:49.849Z,25.68
2022-10-02T09:22:55.371Z,26.80
2022-10-02T09:25:53.974Z,26.88
2022-10-02T09:28:42.682Z,26.86
2022-10-02T09:31:30.201Z,27.46
2022-10-02T09:34:09.212Z,27.50
2022-10-02T09:36:57.543Z,27.12
2022-10-02T09:39:45.024Z,25.81
2022-10-02T09:42:33.813Z,25.00
2022-10-02T09:45:25.489Z,24.50
2022-10-02T09:48:16.772Z,24.16
2022-10-02T09:50:52.822Z,24.68
2022-10-02T09:53:22.473Z,24.81
2022-10-02T09:56:09.501Z,24.69
2022-10-02T09:59:01.288Z,25.06
2022-10-02T10:01:34.179Z,25.23
2022-10-02T10:04:13.146Z,25.16
2022-10-02T10:07:09.242Z,25.44
2022-10-02T10:10:13.369Z,25.08
2022-10-02T10:12:55.201Z,24.91
2022-10-02T10:15:23.022Z,25.19
2022-10-02T10:18:21.406Z,25.36
2022-10-02T10:20:50.622Z,25.05
2022-10-02T10:23:42.272Z,24.89
2022-10-02T10:26:22.823Z,24.45
2022-10-02T10:29:04.884Z,24.75
2022-10-02T10:32:17.713Z,25.35
2022-10-02T10:35:10.104Z,25.21
2022-10-02T10:38:07.684Z,25.39
2022-10-02T10:40:46.324Z,25.29
2022-10-02T10:43:22.163Z,25.42
2022-10-02T10:46:16.491Z,25.85
2022-10-02T10:49:14.483Z,25.50
2022-10-02T10:52:22.654Z,25.30
2022-10-02T10:55:17.564Z,24.73
2022-10-02T10:58:15.879Z,24.35
2022-10-02T11:01:13.496Z,24.56
2022-10-02T11:03:44.978Z,24.89
2022-10-02T11:06:30.240Z,25.10
2022-10-02T11:09:14.703Z,24.52
2022-10-02T11:12:12.961Z,24.37
2022-10-02T11:15:13.349Z,24.33
2022-10-02T11:17:49.855Z,24.36
2022-10-02T11:20:19.994Z,24.61
2022-10-02T11:23:06.651Z,24.62
2022-10-02T11:25:45.182Z,24.52
2022-10-02T11:28:23.965Z,24.33
2022-10-02T11:31:02.510Z,24.60
2022-10-02T11:34:28.811Z,24.42
2022-10-02T11:37:18.930Z,24.64
2022-10-02T11:39:48.652Z,24.83
2022-10-02T11:43:20.969Z,24.26
2022-10-02T11:46:14.903Z,24.40
2022-10-02T11:49:09.802Z,24.25
2022-10-02T11:52:13.579Z,23.99
2022-10-02T11:54:54.762Z,24.04
2022-10-02T11:57:35.193Z,23.83
2022-10-02T12:00:52.763Z,23.17
2022-10-02T12:03:37.011Z,23.14
2022-10-02T12:06:15.431Z,23.19
2022-10-02T12:09:00.272Z,23.44
2022-10-02T12:11:37.811Z,23.61
2022-10-02T12:14:27.846Z,23.80
2022-10-02T12:17:29.561Z,23.83
2022-10-02T12:20:21.153Z,23.80
2022-10-02T12:23:15.932Z,23.80
2022-10-02T12:26:20.216Z,23.54
2022-10-02T12:29:19.784Z,23.28
2022-10-02T12:32:08.139Z,23.53
2022-10-02T12:34:59.944Z,23.37
2022-10-02T12:38:03.441Z,23.37
2022-10-02T12:40:59.844Z,23.32
2022-10-02T12:43:54.593Z,23.21
2022-10-02T12:46:59.803Z,23.15
2022-10-02T12:49:59.671Z,23.20
2022-10-02T12:52:43.253Z,23.43
2022-10-02T12:55:12.931Z,23.46
2022-10-02T12:58:18.184Z,23.38
2022-10-02T13:01:22.448Z,23.47
2022-10-02T13:04:09.051Z,23.38
2022-10-02T13:06:55.014Z,23.37
2022-10-02T13:09:43.372Z,23.43
2022-10-02T13:12:32.959Z,23.41
2022-10-02T13:15:18.438Z,23.41
2022-10-02T13:17:57.561Z,23.36
2022-10-02T13:20:51.671Z,23.26
2022-10-02T13:23:42.685Z,23.01
2022-10-02T13:26:34.271Z,22.90
2022-10-02T13:29:13.871Z,23.11
2022-10-02T13:32:09.563Z,23.20
2022-10-02T13:35:06.251Z,23.15
2022-10-02T13:37:45.414Z,22.92
2022-10-02T13:40:34.727Z,23.04
2022-10-02T13:43:27.665Z,23.15
2022-10-02T13:46:02.645Z,23.27
2022-10-02T13:49:01.811Z,22.93
2022-10-02T13:51:43.992Z,22.91
2022-10-02T13:54:23.111Z,22.84
2022-10-02T13:57:00.012Z,22.82
2022-10-02T13:59:45.965Z,22.96
2022-10-02T14:02:40.758Z,23.05
2022-10-02T14:05:19.321Z,23.05
2022-10-02T14:07:46.076Z,23.10
2022-10-02T14:10:53.585Z,23.02
2022-10-02T14:13:42.420Z,22.84
2022-10-02T14:16:27.802Z,22.78
2022-10-02T14:19:27.814Z,22.82
2022-10-02T14:22:02.595Z,22.88
2022-10-02T14:25:00.029Z,22.86
2022-10-02T14:28:05.910Z,22.73
2022-10-02T14:31:05.056Z,22.71
2022-10-02T14:33:37.723Z,22.57
2022-10-02T14:36:18.302Z,22.47
2022-10-02T14:39:25.936Z,22.32
2022-10-02T14:42:04.662Z,22.35
2022-10-02T14:45:05.000Z,22.27
2022-10-02T14:47:50.366Z,22.35
2022-10-02T14:50:17.285Z,22.42
2022-10-02T14:52:59.386Z,22.10
2022-10-02T14:55:42.138Z,22.04
2022-10-02T14:58:30.359Z,21.99
2022-10-02T15:01:16.931Z,21.95
2022-10-02T15:04:22.108Z,21.93
2022-10-02T15:07:04.558Z,21.85
2022-10-02T15:10:02.567Z,21.90
2022-10-02T15:12:43.836Z,21.89
2022-10-02T15:15:27.867Z,21.77
2022-10-02T15:17:57.787Z,21.76
2022-10-02T15:20:33.507Z,21.60
2022-10-02T15:23:07.573Z,21.50
2022-10-02T15:25:49.988Z,21.31
2022-10-02T15:28:36.307Z,21.25
2022-10-02T15:31:18.051Z,21.13
2022-10-02T15:33:56.143Z,21.08
2022-10-02T15:36:46.947Z,21.03
2022-10-02T15:39:29.826Z,20.95
2022-10-02T15:42:08.982Z,20.87
2022-10-02T15:44:41.511Z,20.68
2022-10-02T15:47:18.262Z,20.73
2022-10-02T15:50:04.111Z,20.79
2022-10-02T15:52:39.698Z,20.64
2022-10-02T15:55:37.651Z,20.43
2022-10-02T15:58:24.512Z,20.35
2022-10-02T16:01:01.133Z,20.26
2022-10-02T16:03:40.222Z,20.15
2022-10-02T16:06:17.933Z,20.04
2022-10-02T16:09:16.012Z,19.95
2022-10-02T16:12:21.512Z,19.87
2022-10-02T16:15:18.304Z,19.78
2022-10-02T16:17:56.868Z,19.64
2022-10-02T16:20:43.213Z,19.53
2022-10-02T16:23:36.431Z,19.47
2022-10-02T16:26:12.139Z,19.36
2022-10-02T16:28:48.012Z,19.25
2022-10-02T16:31:33.591Z,19.18
2022-10-02T16:34:11.178Z,19.12
2022-10-02T16:36:56.485Z,19.08
2022-10-02T16:39:42.491Z,18.97
2022-10-02T16:42:21.176Z,18.76
2022-10-02T16:45:05.255Z,18.70
2022-10-02T16:47:50.831Z,18.57
2022-10-02T16:50:17.777Z,18.48
2022-10-02T16:52:53.581Z,18.37
2022-10-02T16:55:28.729Z,18.26
2022-10-02T16:58:21.898Z,18.09
2022-10-02T17:00:57.654Z,17.97
2022-10-02T17:03:35.866Z,17.82
2022-10-02T17:06:27.300Z,17.78
2022-10-02T17:09:22.937Z,17.70
2022-10-02T17:11:57.731Z,17.64
2022-10-02T17:14:46.722Z,17.59
2022-10-02T17:17:19.562Z,17.53
2022-10-02T17:19:59.532Z,17.55
2022-10-02T17:23:12.031Z,17.50
2022-10-02T17:26:22.856Z,17.52
2022-10-02T17:28:59.211Z,17.58
2022-10-02T17:31:57.777Z,17.19
2022-10-02T17:34:29.571Z,17.29
2022-10-02T17:37:26.260Z,17.29
2022-10-02T17:40:13.898Z,17.29
2022-10-02T17:43:03.884Z,17.30
2022-10-02T17:45:52.525Z,17.14
2022-10-02T17:48:57.983Z,17.12
2022-10-02T17:51:53.465Z,17.12
2022-10-02T17:54:42.002Z,17.09
2022-10-02T17:57:25.183Z,16.99
2022-10-02T18:00:01.550Z,16.96
2022-10-02T18:03:04.360Z,16.67
2022-10-02T18:05:50.879Z,16.66
2022-10-02T18:08:39.763Z,16.44
2022-10-02T18:11:38.376Z,16.59
2022-10-02T18:14:32.126Z,16.36
2022-10-02T18:17:27.086Z,16.42
2022-10-02T18:20:23.224Z,16.33
2022-10-02T18:23:02.624Z,16.27
2022-10-02T18:25:36.455Z,16.21
2022-10-02T18:28:23.463Z,16.16
2022-10-02T18:30:59.455Z,16.09
2022-10-02T18:33:53.843Z,16.04
2022-10-02T18:36:50.705Z,16.00
2022-10-02T18:39:51.182Z,15.96
2022-10-02T18:42:41.478Z,15.94
2022-10-02T18:45:35.584Z,15.98
2022-10-02T18:48:21.797Z,15.88
2022-10-02T18:51:10.182Z,15.81
2022-10-02T18:53:57.754Z,15.76
2022-10-02T18:57:02.365Z,15.81
2022-10-02T18:59:58.576Z,15.76
2022-10-02T19:02:26.487Z,15.86
2022-10-02T19:05:10.107Z,15.70
2022-10-02T19:08:15.517Z,15.71
2022-10-02T19:10:47.112Z,15.65
2022-10-02T19:13:38.410Z,15.63
2022-10-02T19:16:18.218Z,15.61
2022-10-02T19:18:45.015Z,15.43
2022-10-02T19:21:21.555Z,15.51
2022-10-02T19:23:54.226Z,15.37
2022-10-02T19:26:33.249Z,15.20
2022-10-02T19:29:05.547Z,15.16
2022-10-02T19:31:39.482Z,15.03
2022-10-02T19:34:16.526Z,15.00
2022-10-02T19:36:50.510Z,15.03
2022-10-02T19:39:41.594Z,15.03
2022-10-02T19:42:25.131Z,14.87
2022-10-02T19:45:06.215Z,14.78
2022-10-02T19:48:02.115Z,14.72
2022-10-02T19:50:41.469Z,14.80
2022-10-02T19:53:30.121Z,14.88
2022-10-02T19:55:59.720Z,14.93
2022-10-02T19:58:35.045Z,14.93
2022-10-02T20:01:04.208Z,14.89
2022-10-02T20:03:33.255Z,14.90
2022-10-02T20:06:18.606Z,14.93
2022-10-02T20:08:50.634Z,14.91
2022-10-02T20:11:31.484Z,14.86
2022-10-02T20:14:17.563Z,14.82
2022-10-02T20:17:02.938Z,14.69
2022-10-02T20:19:34.443Z,14.74
2022-10-02T20:22:13.450Z,14.73
2022-10-02T20:25:02.526Z,14.71
2022-10-02T20:27:52.145Z,14.77
2022-10-02T20:30:22.637Z,14.75
2022-10-02T20:33:24.775Z,14.75
2022-10-02T20:36:05.230Z,14.71
2022-10-02T20:38:38.720Z,14.63
2022-10-02T20:41:18.614Z,14.55
2022-10-02T20:43:51.482Z,14.58
2022-10-02T20:46:47.777Z,14.54
2022-10-02T20:49:41.854Z,14.48
2022-10-02T20:52:26.828Z,14.41
2022-10-02T20:55:18.060Z,14.30
2022-10-02T20:58:21.557Z,14.24
2022-10-02T21:01:20.923Z,14.17
2022-10-02T21:04:08.679Z,14.11
2022-10-02T21:07:06.760Z,14.16
2022-10-02T21:10:08.571Z,14.03
2022-10-02T21:12:44.382Z,14.07
2022-10-02T21:15:33.123Z,14.00
2022-10-02T21:18:09.117Z,13.96
2022-10-02T21:21:03.561Z,13.89
2022-10-02T21:23:48.595Z,13.86
2022-10-02T21:26:44.125Z,13.87
2022-10-02T21:29:29.483Z,13.98
2022-10-02T21:32:20.456Z,13.84
2022-10-02T21:34:56.214Z,13.87
2022-10-02T21:37:55.530Z,13.92
2022-10-02T21:40:42.424Z,13.96
2022-10-02T21:43:34.348Z,13.96
2022-10-02T21:46:26.054Z,13.84
2022-10-02T21:49:20.281Z,13.84
2022-10-02T21:52:14.700Z,13.80
2022-10-02T21:55:03.069Z,13.83
2022-10-02T21:57:54.543Z,13.67
2022-10-02T22:00:24.588Z,13.78
2022-10-02T22:03:01.249Z,13.78
2022-10-02T22:05:33.144Z,13.86
2022-10-02T22:08:08.762Z,13.83
2022-10-02T22:10:55.409Z,13.78
2022-10-02T22:13:25.510Z,13.78
2022-10-02T22:16:04.253Z,13.76
2022-10-02T22:18:54.213Z,13.67
2022-10-02T22:21:51.599Z,13.62
2022-10-02T22:24:33.246Z,13.48
2022-10-02T22:27:11.822Z,13.44
2022-10-02T22:29:50.629Z,13.50
2022-10-02T22:33:02.168Z,13.34
2022-10-02T22:35:50.378Z,13.33
2022-10-02T22:38:31.712Z,13.28
2022-10-02T22:41:08.331Z,13.34
2022-10-02T22:43:37.611Z,13.28
2022-10-02T22:46:28.422Z,13.30
2022-10-02T22:49:04.912Z,13.33
2022-10-02T22:51:40.308Z,13.42
2022-10-02T22:54:27.092Z,13.35
2022-10-02T22:57:32.962Z,13.36
2022-10-02T23:00:06.428Z,13.49
2022-10-02T23:02:44.058Z,13.48
2022-10-02T23:05:33.403Z,13.34
2022-10-02T23:08:23.435Z,13.31
2022-10-02T23:11:01.293Z,13.31
2022-10-02T23:13:40.922Z,13.40
2022-10-02T23:16:22.714Z,13.48
2022-10-02T23:18:57.509Z,13.43
2022-10-02T23:21:52.212Z,13.27
2022-10-02T23:24:47.552Z,13.28
2022-10-02T23:27:31.707Z,13.27
2022-10-02T23:30:11.577Z,13.12
2022-10-02T23:32:44.928Z,13.13
2022-10-02T23:35:21.586Z,13.05
2022-10-02T23:37:54.858Z,13.04
2022-10-02T23:40:47.752Z,12.99
2022-10-02T23:43:30.209Z,13.00
2022-10-02T23:46:04.894Z,12.93
2022-10-02T23:48:32.657Z,12.93
2022-10-02T23:51:11.667Z,13.07
2022-10-02T23:53:59.592Z,13.00
2022-10-02T23:56:35.700Z,13.05
2022-10-02T23:59:43.727Z,13.08
